Time;durP1;ratioP1;P1;durP2;ratioP2;P2;SDS_P1;SDS_P2;PMS_P1;PMS_P2;Temp;Humidity;BMP_temperature;BMP_pressure;BME280_temperature;BME280_humidity;BME280_pressure;Samples;Min_cycle;Max_cycle;Signal;HPM_P1;HPM_P2
2022/06/04 00:01:38;;;;;;;22.58;20.27;;;24.40;93.30;;;;;;6242398;23;20015;-81
2022/06/04 00:04:04;;;;;;;29.25;26.13;;;24.40;93.30;;;;;;6242418;22;20012;-81
2022/06/04 00:06:29;;;;;;;19.52;17.65;;;24.30;93.60;;;;;;6242811;23;20015;-81
2022/06/04 00:08:55;;;;;;;21.52;19.40;;;24.20;94.00;;;;;;6243561;23;20004;-82
2022/06/04 00:16:50;;;;;;;25.83;23.33;;;24.10;93.90;;;;;;6245009;23;20030;-82
2022/06/04 00:19:15;;;;;;;24.58;22.20;;;24.00;94.30;;;;;;6245129;23;19996;-82
2022/06/04 00:21:41;;;;;;;22.80;20.67;;;23.90;94.50;;;;;;6244916;23;20004;-81
2022/06/04 00:24:07;;;;;;;22.27;20.10;;;24.00;94.10;;;;;;6245643;23;20000;-85
2022/06/04 00:26:33;;;;;;;23.55;21.17;;;24.00;93.90;;;;;;6245157;23;20007;-83
2022/06/04 00:28:58;;;;;;;22.90;20.70;;;24.10;93.80;;;;;;6245648;23;20459;-80
2022/06/04 00:31:24;;;;;;;21.67;19.50;;;24.10;93.60;;;;;;6245328;23;20399;-81
2022/06/04 00:33:50;;;;;;;22.80;20.38;;;24.20;93.50;;;;;;6245103;23;20010;-81
2022/06/04 00:36:16;;;;;;;22.85;20.52;;;24.30;93.40;;;;;;6245696;23;20000;-81
2022/06/04 00:38:42;;;;;;;23.02;20.90;;;24.30;93.30;;;;;;6245227;23;20000;-82
2022/06/04 00:41:13;;;;;;;21.42;19.27;;;24.30;93.20;;;;;;6245161;23;20004;-82
2022/06/04 00:43:57;;;;;;;21.42;19.33;;;24.30;93.10;;;;;;6245396;23;20386;-82
2022/06/04 00:46:41;;;;;;;22.40;20.20;;;24.30;93.10;;;;;;6245860;23;20027;-82
2022/06/04 00:49:16;;;;;;;24.20;21.80;;;24.30;93.00;;;;;;6246241;23;20418;-87
2022/06/04 00:51:44;;;;;;;21.88;19.77;;;24.30;93.00;;;;;;6247084;23;20004;-87
2022/06/04 00:54:10;;;;;;;22.45;20.15;;;24.30;93.00;;;;;;6247267;23;20369;-87
2022/06/04 00:56:48;;;;;;;22.33;19.95;;;24.30;93.00;;;;;;6246688;23;20028;-87
2022/06/04 00:59:28;;;;;;;22.67;20.27;;;24.30;92.90;;;;;;6246887;23;20037;-88
2022/06/04 01:02:01;;;;;;;22.42;20.23;;;24.30;92.90;;;;;;6246962;22;20023;-87
2022/06/04 01:04:49;;;;;;;22.77;20.63;;;24.30;92.90;;;;;;6246798;23;20028;-85
2022/06/04 01:07:54;;;;;;;24.80;20.73;;;24.30;92.90;;;;;;6217728;23;20697;-85
2022/06/04 01:10:41;;;;;;;21.33;19.13;;;24.30;92.90;;;;;;6244232;23;20034;-84
2022/06/04 01:13:41;;;;;;;24.17;21.60;;;24.20;93.00;;;;;;6244919;23;20307;-85
2022/06/04 01:16:18;;;;;;;24.30;21.90;;;24.20;93.20;;;;;;6245229;23;20434;-84
2022/06/04 01:19:19;;;;;;;26.48;23.88;;;24.10;93.20;;;;;;6217722;23;20308;-85
2022/06/04 01:22:05;;;;;;;24.77;22.27;;;24.10;93.30;;;;;;6243994;23;20003;-84
2022/06/04 01:24:36;;;;;;;25.77;23.15;;;24.10;93.30;;;;;;6243839;23;20000;-84
2022/06/04 01:27:10;;;;;;;28.23;25.20;;;24.10;93.30;;;;;;6244972;23;20004;-84
2022/06/04 01:29:48;;;;;;;33.83;30.23;;;24.10;93.60;;;;;;6243916;23;20000;-83
2022/06/04 01:32:28;;;;;;;26.30;23.63;;;24.00;93.80;;;;;;6244762;23;20042;-83
2022/06/04 01:35:25;;;;;;;27.00;24.23;;;23.90;94.10;;;;;;6244212;23;20008;-82
2022/06/04 01:37:55;;;;;;;25.50;22.80;;;23.90;94.20;;;;;;6217209;23;20580;-82
2022/06/04 01:43:13;;;;;;;27.97;25.07;;;23.90;94.00;;;;;;6243897;23;20248;-82
2022/06/04 01:45:41;;;;;;;26.67;23.98;;;23.90;93.90;;;;;;6244740;23;20424;-84
2022/06/04 01:48:09;;;;;;;28.30;25.60;;;24.00;93.80;;;;;;6244465;23;20008;-84
2022/06/04 01:50:41;;;;;;;28.33;25.48;;;24.00;93.70;;;;;;6244696;23;20004;-85
2022/06/04 01:53:09;;;;;;;29.65;26.65;;;24.00;93.60;;;;;;6244543;23;20005;-85
2022/06/04 01:55:58;;;;;;;29.20;26.27;;;24.10;93.50;;;;;;6218186;23;20004;-84
2022/06/04 01:58:50;;;;;;;27.55;24.80;;;24.10;93.40;;;;;;6244622;23;20083;-84
2022/06/04 02:01:19;;;;;;;27.90;25.10;;;24.10;93.30;;;;;;6244028;23;20062;-85
2022/06/04 02:03:59;;;;;;;28.67;25.73;;;24.10;93.30;;;;;;6244009;22;20015;-86
2022/06/04 02:06:33;;;;;;;;;;;24.10;93.20;;;;;;6245174;23;20000;-83
2022/06/04 02:09:19;;;;;;;27.63;24.92;;;24.10;93.20;;;;;;6244794;23;19907;-84
2022/06/04 02:11:51;;;;;;;27.45;24.75;;;24.10;93.20;;;;;;6244478;23;20011;-84
2022/06/04 02:14:18;;;;;;;26.30;23.70;;;24.10;93.10;;;;;;6243913;23;20374;-84
2022/06/04 02:16:52;;;;;;;27.58;24.88;;;24.10;93.10;;;;;;6245086;23;19996;-84
2022/06/04 02:19:18;;;;;;;28.00;25.10;;;24.10;93.10;;;;;;6217600;23;20419;-85
2022/06/04 02:21:44;;;;;;;27.15;24.13;;;24.10;93.10;;;;;;6242824;22;20004;-87
2022/06/04 02:24:10;;;;;;;25.30;22.80;;;24.00;93.00;;;;;;6244241;23;20008;-85
2022/06/04 02:26:37;;;;;;;28.08;25.10;;;24.00;93.00;;;;;;6217836;23;20011;-82
2022/06/04 02:29:04;;;;;;;26.33;23.70;;;24.00;93.00;;;;;;6244099;23;20066;-82
2022/06/04 02:31:42;;;;;;;26.67;24.08;;;24.00;92.90;;;;;;6243354;23;20433;-85
2022/06/04 02:34:08;;;;;;;26.35;23.70;;;24.00;92.90;;;;;;6217353;23;20335;-84
2022/06/04 02:36:41;;;;;;;26.70;24.00;;;24.00;92.90;;;;;;6244453;23;19996;-82
2022/06/04 02:39:15;;;;;;;25.05;22.55;;;24.00;92.90;;;;;;6243906;23;20038;-82
2022/06/04 02:42:06;;;;;;;25.77;23.38;;;24.00;92.80;;;;;;6243591;23;20012;-81
2022/06/04 02:44:41;;;;;;;24.85;22.45;;;24.00;92.80;;;;;;6244261;23;20008;-81
2022/06/04 02:47:24;;;;;;;25.85;23.15;;;24.00;92.80;;;;;;6244539;23;20011;-82
2022/06/04 02:50:11;;;;;;;26.38;23.77;;;24.00;92.80;;;;;;6243655;23;20000;-81
2022/06/04 02:52:38;;;;;;;25.27;22.85;;;24.00;92.80;;;;;;6216431;23;20190;-81
2022/06/04 02:55:15;;;;;;;22.67;20.33;;;23.90;92.70;;;;;;6216816;23;20055;-81
2022/06/04 02:57:46;;;;;;;22.92;20.63;;;23.90;92.70;;;;;;6243490;23;20018;-81
2022/06/04 03:00:16;;;;;;;20.70;18.77;;;23.90;92.60;;;;;;6241917;23;20000;-82
2022/06/04 03:02:42;;;;;;;22.13;19.73;;;23.80;92.60;;;;;;6243073;22;20012;-83
2022/06/04 03:05:12;;;;;;;22.20;19.85;;;23.80;92.50;;;;;;6244394;23;20054;-84
2022/06/04 03:07:45;;;;;;;20.63;18.52;;;23.80;92.50;;;;;;6244140;23;20008;-83
2022/06/04 03:10:17;;;;;;;20.92;18.73;;;23.90;92.50;;;;;;6243635;23;20004;-83
2022/06/04 03:12:43;;;;;;;21.08;18.88;;;23.80;92.40;;;;;;6217432;23;20017;-83
2022/06/04 03:15:10;;;;;;;19.50;17.52;;;23.80;92.30;;;;;;6243711;23;20000;-84
2022/06/04 03:17:38;;;;;;;20.08;18.10;;;23.80;92.20;;;;;;6244517;23;20004;-85
2022/06/04 03:20:06;;;;;;;17.77;15.77;;;23.80;92.10;;;;;;6243277;23;20004;-85
2022/06/04 03:22:34;;;;;;;19.57;16.27;;;23.80;92.00;;;;;;6243920;23;20050;-86
2022/06/04 03:24:59;;;;;;;16.92;15.13;;;23.80;91.90;;;;;;6244450;23;20011;-86
2022/06/04 03:27:25;;;;;;;15.95;14.35;;;23.80;91.70;;;;;;6242212;22;20004;-86
2022/06/04 03:29:51;;;;;;;16.05;14.60;;;23.80;91.60;;;;;;6242890;23;20004;-84
2022/06/04 03:32:17;;;;;;;16.63;14.77;;;23.80;91.60;;;;;;6243408;23;20011;-83
2022/06/04 03:34:43;;;;;;;16.38;14.73;;;23.80;91.60;;;;;;6244111;23;20000;-84
2022/06/04 03:37:08;;;;;;;17.95;16.00;;;23.80;91.50;;;;;;6243265;23;20440;-84
2022/06/04 03:39:34;;;;;;;18.50;15.27;;;23.70;91.50;;;;;;6243421;23;20007;-86
2022/06/04 03:42:01;;;;;;;21.90;16.95;;;23.70;91.50;;;;;;6243093;23;20031;-86
2022/06/04 03:44:27;;;;;;;18.55;16.75;;;23.70;91.60;;;;;;6242364;22;20058;-84
2022/06/04 03:46:54;;;;;;;19.30;17.25;;;23.50;91.70;;;;;;6243495;23;20004;-85
2022/06/04 03:49:19;;;;;;;24.00;21.70;;;23.40;91.80;;;;;;6244202;23;20038;-85
2022/06/04 03:51:46;;;;;;;26.33;23.52;;;23.30;92.10;;;;;;6218740;23;20008;-85
2022/06/04 03:54:12;;;;;;;25.75;22.80;;;23.10;92.30;;;;;;6245586;23;20043;-85
2022/06/04 03:56:37;;;;;;;22.65;20.33;;;23.00;92.50;;;;;;6245877;23;19996;-86
2022/06/04 03:59:03;;;;;;;20.15;17.95;;;22.90;92.80;;;;;;6245052;23;20008;-86
2022/06/04 04:01:31;;;;;;;23.58;21.08;;;22.90;93.00;;;;;;6246080;23;20019;-85
2022/06/04 04:03:58;;;;;;;25.15;21.70;;;22.80;93.00;;;;;;6245146;22;20422;-85
2022/06/04 04:06:28;;;;;;;27.52;22.70;;;22.70;93.20;;;;;;6245992;23;20042;-83
2022/06/04 04:08:54;;;;;;;16.50;14.65;;;22.60;93.40;;;;;;6244509;23;20411;-83
2022/06/04 04:11:23;;;;;;;16.20;14.73;;;22.70;93.30;;;;;;6218757;23;20031;-82
2022/06/04 04:13:51;;;;;;;19.83;17.73;;;22.80;93.20;;;;;;6244830;23;20077;-82
2022/06/04 04:16:18;;;;;;;19.77;16.45;;;22.90;93.10;;;;;;6245626;23;19996;-82
2022/06/04 04:18:44;;;;;;;25.60;23.00;;;22.90;93.10;;;;;;6245163;23;20312;-82
2022/06/04 04:21:16;;;;;;;23.77;21.25;;;22.80;93.10;;;;;;6244626;23;20076;-81
2022/06/04 04:23:43;;;;;;;15.57;14.02;;;22.70;93.50;;;;;;6244413;23;20011;-82
2022/06/04 04:26:12;;;;;;;15.88;14.23;;;22.70;93.50;;;;;;6218367;23;20008;-82
2022/06/04 04:28:39;;;;;;;15.02;13.43;;;22.80;93.40;;;;;;6244927;23;20004;-84
2022/06/04 04:31:20;;;;;;;18.20;16.45;;;22.90;93.30;;;;;;6244900;23;20008;-79
2022/06/04 04:33:46;;;;;;;18.02;16.23;;;23.00;93.10;;;;;;6245020;23;20402;-82
2022/06/04 04:36:11;;;;;;;19.08;16.08;;;23.10;92.90;;;;;;6245123;23;20023;-81
2022/06/04 04:38:38;;;;;;;26.17;22.25;;;23.20;92.80;;;;;;6243341;22;20004;-81
2022/06/04 04:41:09;;;;;;;19.38;17.38;;;23.20;92.90;;;;;;6244748;23;20000;-81
2022/06/04 04:43:35;;;;;;;27.52;21.58;;;23.10;92.80;;;;;;6244784;23;20377;-78
2022/06/04 04:46:07;;;;;;;21.02;17.00;;;23.10;92.80;;;;;;6244598;23;20429;-78
2022/06/04 04:48:32;;;;;;;19.48;17.05;;;23.10;92.90;;;;;;6217449;23;20004;-79
2022/06/04 04:50:59;;;;;;;18.70;16.08;;;23.20;92.90;;;;;;6243602;23;20453;-78
2022/06/04 04:53:24;;;;;;;16.95;15.20;;;23.20;92.80;;;;;;6244329;23;20015;-77
2022/06/04 04:55:50;;;;;;;18.92;16.48;;;23.30;92.50;;;;;;6244851;23;20398;-77
2022/06/04 04:58:16;;;;;;;19.35;17.38;;;23.30;92.30;;;;;;6217472;23;20338;-77
2022/06/04 05:00:43;;;;;;;17.45;15.57;;;23.30;92.20;;;;;;6244243;23;20308;-79
2022/06/04 05:03:09;;;;;;;19.15;17.00;;;23.40;92.20;;;;;;6244139;22;20024;-77
2022/06/04 05:05:35;;;;;;;19.05;17.05;;;23.40;92.20;;;;;;6243878;23;20414;-78
2022/06/04 05:08:01;;;;;;;18.75;16.73;;;23.40;92.10;;;;;;6238143;23;20042;-77
2022/06/04 05:10:27;;;;;;;20.33;16.85;;;23.40;92.10;;;;;;6241968;23;20008;-83
2022/06/04 05:12:54;;;;;;;20.45;17.15;;;23.50;92.10;;;;;;6240888;23;20035;-82
2022/06/04 05:15:21;;;;;;;19.63;17.55;;;23.40;92.10;;;;;;6243370;23;20004;-83
2022/06/04 05:17:47;;;;;;;20.08;18.02;;;23.50;92.10;;;;;;6243253;23;19996;-78
2022/06/04 05:20:13;;;;;;;23.50;19.10;;;23.40;92.10;;;;;;6243789;23;20081;-78
2022/06/04 05:22:42;;;;;;;20.60;17.30;;;23.50;92.20;;;;;;6243684;23;20084;-78
2022/06/04 05:25:08;;;;;;;22.27;17.17;;;23.50;92.10;;;;;;6243640;23;20314;-78
2022/06/04 05:27:34;;;;;;;24.42;20.08;;;23.60;92.10;;;;;;6244553;23;20308;-81
2022/06/04 05:30:00;;;;;;;20.98;17.88;;;23.60;92.10;;;;;;6244559;23;20008;-83
2022/06/04 05:32:26;;;;;;;21.88;19.50;;;23.60;92.10;;;;;;6243921;23;20007;-82
2022/06/04 05:34:52;;;;;;;24.70;22.10;;;23.60;92.10;;;;;;6244683;23;20095;-82
2022/06/04 05:37:18;;;;;;;19.92;17.88;;;23.60;92.00;;;;;;6245883;23;20031;-90
2022/06/04 05:39:43;;;;;;;23.35;20.23;;;23.60;92.00;;;;;;6245729;23;20000;-82
2022/06/04 05:42:10;;;;;;;18.77;16.77;;;23.60;92.10;;;;;;6243246;23;20423;-82
2022/06/04 05:44:36;;;;;;;20.02;17.92;;;23.60;92.20;;;;;;6244138;23;20054;-81
2022/06/04 05:47:04;;;;;;;20.35;18.15;;;23.60;92.20;;;;;;6240268;23;20000;-80
2022/06/04 05:49:31;;;;;;;20.10;18.00;;;23.60;92.10;;;;;;6243620;23;20488;-82
2022/06/04 05:51:56;;;;;;;20.50;18.23;;;23.70;91.90;;;;;;6244158;23;20035;-82
2022/06/04 05:54:23;;;;;;;20.88;18.77;;;23.70;91.80;;;;;;6245255;23;20000;-82
2022/06/04 05:56:50;;;;;;;20.10;17.92;;;23.70;91.70;;;;;;6245366;23;20066;-82
2022/06/04 05:59:19;;;;;;;21.17;19.05;;;23.80;91.70;;;;;;6244628;23;20000;-82
2022/06/04 06:01:46;;;;;;;19.98;17.95;;;23.80;91.80;;;;;;6243911;22;19996;-81
2022/06/04 06:04:14;;;;;;;19.85;17.33;;;23.70;91.80;;;;;;6244685;23;20011;-81
2022/06/04 06:06:43;;;;;;;31.13;27.10;;;23.80;91.90;;;;;;6244532;23;20058;-82
2022/06/04 06:09:11;;;;;;;22.55;20.35;;;23.70;92.10;;;;;;6245223;23;20032;-82
2022/06/04 06:11:37;;;;;;;24.52;22.17;;;23.60;92.10;;;;;;6244325;23;20007;-82
2022/06/04 06:14:03;;;;;;;28.98;25.98;;;23.50;92.30;;;;;;6244239;23;20004;-82
2022/06/04 06:16:31;;;;;;;24.83;22.23;;;23.40;92.70;;;;;;6244752;23;20332;-76
2022/06/04 06:18:58;;;;;;;25.77;23.17;;;23.40;93.00;;;;;;6245181;23;20000;-76
2022/06/04 06:21:30;;;;;;;22.65;20.30;;;23.30;93.20;;;;;;6244101;23;20004;-77
2022/06/04 06:23:56;;;;;;;22.17;19.80;;;23.30;93.00;;;;;;6245048;23;20004;-77
2022/06/04 06:26:25;;;;;;;22.42;20.35;;;23.40;93.00;;;;;;6217778;23;20019;-76
2022/06/04 06:28:52;;;;;;;39.72;35.85;;;23.40;93.10;;;;;;6243297;23;20319;-76
2022/06/04 06:31:22;;;;;;;28.48;25.60;;;23.40;93.20;;;;;;6245458;23;20000;-76
2022/06/04 06:33:49;;;;;;;24.27;21.88;;;23.30;93.40;;;;;;6218502;23;20012;-81
2022/06/04 06:36:18;;;;;;;24.77;22.27;;;23.30;93.40;;;;;;6245885;23;20031;-81
2022/06/04 06:38:47;;;;;;;23.42;21.00;;;23.40;93.30;;;;;;6245298;23;20039;-80
2022/06/04 06:41:15;;;;;;;27.50;24.67;;;23.60;93.20;;;;;;6217672;23;20066;-80
2022/06/04 06:43:46;;;;;;;28.52;25.77;;;23.60;93.30;;;;;;6219070;23;20081;-81
2022/06/04 06:46:26;;;;;;;36.22;32.35;;;23.70;93.00;;;;;;6219398;23;20481;-81
2022/06/04 06:49:17;;;;;;;25.38;22.65;;;23.70;92.80;;;;;;6218844;23;20007;-81
2022/06/04 06:51:47;;;;;;;28.90;25.63;;;23.80;92.70;;;;;;6245321;23;20022;-81
2022/06/04 06:54:17;;;;;;;28.65;25.73;;;23.90;92.60;;;;;;6245612;23;20418;-81
2022/06/04 06:56:45;;;;;;;51.55;46.17;;;24.00;92.60;;;;;;6245851;23;20005;-80
2022/06/04 06:59:10;;;;;;;45.58;40.70;;;24.00;92.20;;;;;;6246222;23;19996;-80
2022/06/04 07:01:37;;;;;;;49.67;44.58;;;23.90;92.40;;;;;;6245608;23;20014;-81
2022/06/04 07:04:04;;;;;;;25.50;22.90;;;23.90;92.20;;;;;;6246159;22;20361;-81
2022/06/04 07:06:42;;;;;;;25.90;23.17;;;23.90;92.30;;;;;;6245765;23;20004;-81
2022/06/04 07:09:14;;;;;;;24.98;22.48;;;23.90;92.10;;;;;;6245878;23;20447;-77
2022/06/04 07:11:40;;;;;;;35.05;31.50;;;24.10;92.10;;;;;;6217985;23;20062;-78
2022/06/04 07:14:06;;;;;;;31.05;27.35;;;24.10;91.90;;;;;;6244777;23;20000;-78
2022/06/04 07:16:32;;;;;;;30.48;27.40;;;24.20;91.80;;;;;;6218246;23;20004;-78
2022/06/04 07:18:58;;;;;;;25.27;22.85;;;24.20;91.70;;;;;;6244570;23;20012;-78
2022/06/04 07:21:24;;;;;;;30.98;26.95;;;24.40;91.70;;;;;;6243779;23;20075;-78
2022/06/04 07:23:50;;;;;;;28.48;25.55;;;24.40;91.60;;;;;;6244223;23;20319;-78
2022/06/04 07:26:16;;;;;;;28.25;25.30;;;24.40;91.10;;;;;;6245197;23;20007;-84
2022/06/04 07:28:42;;;;;;;44.92;40.22;;;24.40;91.20;;;;;;6218175;23;20011;-78
2022/06/04 07:31:09;;;;;;;31.55;28.35;;;24.40;91.50;;;;;;6245082;23;20031;-78
2022/06/04 07:33:35;;;;;;;32.95;29.55;;;24.40;91.50;;;;;;6245529;23;20006;-78
2022/06/04 07:36:03;;;;;;;29.08;26.02;;;24.50;91.40;;;;;;6245661;23;20071;-80
2022/06/04 07:38:28;;;;;;;24.90;22.40;;;24.60;91.40;;;;;;6218805;23;20000;-78
2022/06/04 07:40:54;;;;;;;24.45;21.85;;;24.70;91.20;;;;;;6245330;23;20050;-78
2022/06/04 07:43:20;;;;;;;30.05;26.98;;;24.80;91.10;;;;;;6245118;23;20088;-78
2022/06/04 07:45:46;;;;;;;28.25;24.95;;;24.80;90.80;;;;;;6245231;23;20374;-78
2022/06/04 07:48:12;;;;;;;25.90;22.23;;;24.90;90.90;;;;;;6245989;23;20054;-78
2022/06/04 07:50:39;;;;;;;30.48;27.30;;;25.00;90.80;;;;;;6245803;23;20012;-78
2022/06/04 07:53:06;;;;;;;27.88;25.02;;;25.10;90.40;;;;;;6243557;23;20004;-77
2022/06/04 07:55:33;;;;;;;32.72;29.55;;;25.10;90.20;;;;;;6245166;23;20003;-77
2022/06/04 07:57:59;;;;;;;48.50;43.22;;;25.10;90.10;;;;;;6245351;23;20442;-78
2022/06/04 08:00:26;;;;;;;33.72;30.15;;;25.00;89.80;;;;;;6218674;23;20000;-78
2022/06/04 08:02:52;;;;;;;26.88;24.13;;;24.90;90.10;;;;;;6244568;22;20016;-78
2022/06/04 08:05:18;;;;;;;25.02;22.33;;;25.00;90.40;;;;;;6245104;23;20061;-78
2022/06/04 08:08:19;;;;;;;25.15;22.50;;;25.10;90.40;;;;;;6238312;23;20020;-78
2022/06/04 08:10:50;;;;;;;27.85;24.90;;;25.30;90.30;;;;;;6215454;23;20098;-77
2022/06/04 08:15:48;;;;;;;29.63;26.45;;;25.40;89.90;;;;;;6244875;23;20008;-77
2022/06/04 08:18:14;;;;;;;25.90;23.33;;;25.50;89.70;;;;;;6218037;23;20327;-77
2022/06/04 08:20:44;;;;;;;25.90;23.33;;;25.60;89.80;;;;;;6244962;23;20004;-77
2022/06/04 08:23:11;;;;;;;28.55;25.45;;;25.70;89.60;;;;;;6244909;23;20005;-77
2022/06/04 08:25:50;;;;;;;26.90;23.65;;;25.70;89.00;;;;;;6243403;23;20007;-78
2022/06/04 08:28:17;;;;;;;25.55;22.85;;;25.70;89.00;;;;;;6243961;23;20307;-78
2022/06/04 08:30:44;;;;;;;25.70;23.15;;;25.80;88.70;;;;;;6216825;23;20015;-78
2022/06/04 08:33:11;;;;;;;24.73;22.10;;;25.80;88.00;;;;;;6216062;23;20334;-78
2022/06/04 08:35:37;;;;;;;28.75;23.42;;;25.90;88.40;;;;;;6244324;23;20785;-77
2022/06/04 08:38:04;;;;;;;29.23;22.60;;;26.00;88.30;;;;;;6245652;23;20000;-78
2022/06/04 08:40:39;;;;;;;25.75;23.10;;;26.00;88.20;;;;;;6245206;23;20058;-77
2022/06/04 08:43:33;;;;;;;34.15;27.02;;;26.10;88.00;;;;;;6218317;23;20011;-78
2022/06/04 08:46:03;;;;;;;54.50;48.63;;;26.20;87.10;;;;;;6218586;23;20457;-77
2022/06/04 08:48:34;;;;;;;32.15;28.77;;;26.20;86.20;;;;;;6247354;23;20070;-79
2022/06/04 08:50:59;;;;;;;28.40;25.33;;;26.10;86.70;;;;;;6246714;23;20028;-77
2022/06/04 08:53:28;;;;;;;23.20;20.63;;;26.10;87.00;;;;;;6246862;23;20000;-78
2022/06/04 08:59:14;;;;;;;26.77;23.92;;;26.20;87.20;;;;;;6246699;23;20015;-79
2022/06/04 09:01:42;;;;;;;23.35;20.85;;;26.30;86.80;;;;;;6246186;23;20072;-78
2022/06/04 09:04:38;;;;;;;25.67;22.27;;;26.40;86.30;;;;;;6246910;23;20095;-78
2022/06/04 09:07:25;;;;;;;34.22;28.42;;;26.50;86.10;;;;;;6247016;23;20008;-78
2022/06/04 09:10:16;;;;;;;39.33;35.13;;;26.50;85.60;;;;;;6246963;23;20004;-78
2022/06/04 09:12:47;;;;;;;31.88;28.48;;;26.50;85.20;;;;;;6246387;23;20012;-78
2022/06/04 09:15:29;;;;;;;31.13;27.67;;;26.50;86.00;;;;;;6247103;23;19997;-79
2022/06/04 09:17:57;;;;;;;33.83;28.73;;;26.60;86.20;;;;;;6246624;23;20001;-78
2022/06/04 09:20:43;;;;;;;31.00;27.80;;;26.60;85.90;;;;;;6246611;23;19996;-78
2022/06/04 09:23:11;;;;;;;34.55;30.85;;;26.60;86.00;;;;;;6246416;23;20000;-78
2022/06/04 09:25:52;;;;;;;30.15;26.73;;;26.70;86.20;;;;;;6247112;23;20000;-78
2022/06/04 09:29:00;;;;;;;27.90;25.08;;;26.80;86.50;;;;;;6247086;23;20001;-78
2022/06/04 09:31:52;;;;;;;49.72;44.08;;;26.90;86.80;;;;;;6233421;23;20043;-78
2022/06/04 09:34:23;;;;;;;30.70;27.50;;;27.00;86.10;;;;;;6246808;23;20027;-78
2022/06/04 09:36:50;;;;;;;28.35;25.55;;;27.10;86.60;;;;;;6246304;23;20248;-78
2022/06/04 09:39:29;;;;;;;27.42;24.73;;;27.20;86.70;;;;;;6219553;23;20003;-78
2022/06/04 09:42:01;;;;;;;33.60;30.25;;;27.20;86.60;;;;;;6245548;23;20001;-78
2022/06/04 09:44:30;;;;;;;26.27;23.77;;;27.20;85.30;;;;;;6245662;23;20000;-78
2022/06/04 09:47:10;;;;;;;38.45;34.42;;;27.30;85.90;;;;;;6245724;23;20059;-78
2022/06/04 09:49:40;;;;;;;29.15;25.98;;;27.40;85.70;;;;;;6246702;23;20079;-79
2022/06/04 09:52:30;;;;;;;27.65;24.70;;;27.50;85.70;;;;;;6246319;23;20427;-78
2022/06/04 09:55:06;;;;;;;34.33;30.83;;;27.60;85.00;;;;;;6246302;23;20010;-79
2022/06/04 09:57:38;;;;;;;28.88;25.73;;;27.80;84.30;;;;;;6246232;23;20399;-78
2022/06/04 10:00:19;;;;;;;44.75;38.58;;;27.80;83.50;;;;;;6246621;23;20003;-78
2022/06/04 10:03:10;;;;;;;23.40;20.98;;;27.90;82.00;;;;;;6244714;22;20016;-78
2022/06/04 10:05:36;;;;;;;23.02;20.02;;;28.00;83.20;;;;;;6245435;23;20011;-78
2022/06/04 10:08:14;;;;;;;22.80;20.45;;;28.10;83.30;;;;;;6245945;23;20008;-79
2022/06/04 10:10:43;;;;;;;22.80;19.17;;;28.20;82.60;;;;;;6245823;23;20342;-78
2022/06/04 10:16:27;;;;;;;20.45;18.35;;;28.40;82.10;;;;;;6245865;23;20027;-78
2022/06/04 10:19:23;;;;;;;18.83;16.88;;;28.60;81.90;;;;;;6245894;23;20326;-78
2022/06/04 10:22:02;;;;;;;24.80;22.15;;;28.80;80.50;;;;;;6139485;23;20002;-79
2022/06/04 10:24:36;;;;;;;25.25;22.55;;;28.80;79.60;;;;;;6245343;23;20166;-78
2022/06/04 10:27:22;;;;;;;18.40;16.60;;;28.90;79.60;;;;;;6245343;23;20011;-78
2022/06/04 10:30:00;;;;;;;21.27;19.17;;;29.00;80.10;;;;;;6245107;23;20004;-78
2022/06/04 10:32:40;;;;;;;23.80;21.35;;;29.20;80.30;;;;;;6245019;23;20007;-78
2022/06/04 10:35:16;;;;;;;20.25;18.25;;;29.20;79.20;;;;;;6245074;23;19996;-78
2022/06/04 10:37:47;;;;;;;22.58;20.17;;;29.40;79.90;;;;;;6244349;23;20031;-78
2022/06/04 10:40:39;;;;;;;18.70;16.83;;;29.50;79.30;;;;;;6245158;23;20007;-79
2022/06/04 10:43:28;;;;;;;21.92;17.60;;;29.60;78.60;;;;;;6244921;23;20010;-78
2022/06/04 10:46:25;;;;;;;17.05;14.45;;;29.70;78.30;;;;;;6245386;23;20389;-78
2022/06/04 10:49:17;;;;;;;16.13;14.48;;;29.90;77.50;;;;;;6245543;23;20004;-79
2022/06/04 10:51:56;;;;;;;17.17;14.90;;;30.10;77.50;;;;;;6245534;23;20000;-78
2022/06/04 10:54:47;;;;;;;19.08;16.15;;;30.20;75.50;;;;;;6245085;23;20000;-79
2022/06/04 10:57:33;;;;;;;18.80;16.65;;;30.30;76.50;;;;;;6245265;23;20083;-79
2022/06/04 11:00:11;;;;;;;29.10;24.90;;;30.40;75.50;;;;;;6245588;23;20000;-82
2022/06/04 11:02:46;;;;;;;18.58;16.58;;;30.50;75.20;;;;;;6245685;22;20008;-82
2022/06/04 11:05:24;;;;;;;18.73;16.90;;;30.60;74.60;;;;;;6245460;23;20001;-82
2022/06/04 11:08:17;;;;;;;12.55;11.30;;;30.70;74.30;;;;;;6244979;23;20430;-83
2022/06/04 11:10:56;;;;;;;14.73;13.23;;;30.80;72.80;;;;;;6217708;23;20007;-82
2022/06/04 11:13:27;;;;;;;20.45;16.70;;;31.00;73.50;;;;;;6244931;23;20004;-82
2022/06/04 11:16:08;;;;;;;14.63;13.05;;;31.00;72.10;;;;;;6245101;23;20465;-82
2022/06/04 11:18:46;;;;;;;13.82;12.30;;;31.10;73.20;;;;;;6244247;23;20000;-82
2022/06/04 11:21:18;;;;;;;15.15;13.63;;;31.30;72.90;;;;;;6245497;23;20011;-82
2022/06/04 11:23:49;;;;;;;13.82;12.10;;;31.50;71.80;;;;;;6245285;23;20333;-82
2022/06/04 11:26:23;;;;;;;13.77;12.07;;;31.70;71.80;;;;;;6218027;23;20007;-82
2022/06/04 11:28:49;;;;;;;11.82;10.50;;;31.90;69.80;;;;;;6244029;23;20384;-82
2022/06/04 11:31:18;;;;;;;12.52;10.05;;;32.20;70.30;;;;;;6244984;23;20423;-82
2022/06/04 11:34:04;;;;;;;12.52;10.68;;;32.60;69.10;;;;;;6244762;23;20086;-82
2022/06/04 11:36:47;;;;;;;15.77;13.45;;;32.90;67.80;;;;;;6243915;23;20011;-82
2022/06/04 11:39:50;;;;;;;15.30;12.60;;;33.30;64.20;;;;;;6244134;23;20008;-82
2022/06/04 11:42:28;;;;;;;11.85;9.40;;;33.60;64.20;;;;;;6245025;23;20000;-82
2022/06/04 11:44:56;;;;;;;12.02;8.93;;;33.90;65.10;;;;;;6245194;23;20032;-82
2022/06/04 11:47:51;;;;;;;13.73;11.95;;;34.20;65.20;;;;;;6245248;23;20000;-82
2022/06/04 11:50:43;;;;;;;18.23;15.20;;;34.50;62.70;;;;;;6216314;23;20004;-82
2022/06/04 11:53:27;;;;;;;22.85;20.50;;;34.70;62.00;;;;;;6243566;23;20008;-82
2022/06/04 11:56:20;;;;;;;59.80;53.75;;;34.90;59.50;;;;;;6243902;23;20023;-82
2022/06/04 11:58:58;;;;;;;18.58;16.77;;;35.10;61.40;;;;;;6244664;23;19996;-82
2022/06/04 12:01:47;;;;;;;14.45;12.77;;;35.30;61.60;;;;;;6217940;23;20011;-82
2022/06/04 12:04:27;;;;;;;13.25;10.80;;;35.40;58.70;;;;;;6244640;23;20095;-82
2022/06/04 12:07:18;;;;;;;11.65;8.95;;;35.30;58.20;;;;;;6244078;23;20027;-83
2022/06/04 12:10:14;;;;;;;11.82;10.00;;;35.20;60.20;;;;;;6246185;22;20004;-83
2022/06/04 12:12:48;;;;;;;14.40;12.90;;;35.20;58.70;;;;;;6247694;23;20006;-83
2022/06/04 12:15:33;;;;;;;17.73;13.57;;;35.20;58.70;;;;;;6220519;23;20326;-82
2022/06/04 12:18:18;;;;;;;12.80;10.15;;;35.00;59.20;;;;;;6220969;23;20004;-83
2022/06/04 12:26:37;;;;;;;15.15;12.95;;;34.90;60.50;;;;;;6246994;23;20065;-82
2022/06/04 12:29:28;;;;;;;18.80;14.10;;;35.00;59.90;;;;;;6241989;23;20453;-81
2022/06/04 12:31:57;;;;;;;13.05;8.23;;;35.00;58.50;;;;;;6219582;23;20008;-82
2022/06/04 12:34:43;;;;;;;11.85;8.82;;;35.20;60.10;;;;;;6220083;23;20458;-82
2022/06/04 12:37:29;;;;;;;13.07;8.85;;;35.50;58.20;;;;;;6246956;23;20429;-82
2022/06/04 12:39:56;;;;;;;15.00;10.40;;;35.60;57.30;;;;;;6246393;23;19996;-82
2022/06/04 12:42:25;;;;;;;11.38;8.18;;;35.60;57.30;;;;;;6246390;23;20050;-81
2022/06/04 12:45:25;;;;;;;18.45;8.52;;;35.70;57.70;;;;;;6246427;23;20000;-82
2022/06/04 12:47:58;;;;;;;10.10;8.18;;;35.80;57.10;;;;;;6218777;23;20008;-82
2022/06/04 12:50:31;;;;;;;16.70;10.07;;;36.00;57.40;;;;;;6219154;23;20433;-82
2022/06/04 12:53:20;;;;;;;9.13;7.90;;;36.10;57.20;;;;;;6246654;23;20315;-82
2022/06/04 12:55:57;;;;;;;10.77;8.98;;;36.10;57.30;;;;;;6246377;23;20071;-79
2022/06/04 12:58:29;;;;;;;13.00;10.45;;;36.20;56.80;;;;;;6245462;23;20062;-79
2022/06/04 13:01:23;;;;;;;12.30;9.20;;;36.20;56.60;;;;;;6245598;23;20032;-79
2022/06/04 13:04:01;;;;;;;11.32;10.05;;;36.20;56.30;;;;;;6245103;22;20026;-78
2022/06/04 13:06:30;;;;;;;14.73;12.40;;;36.20;55.90;;;;;;6218347;23;20004;-78
2022/06/04 13:09:24;;;;;;;10.10;8.63;;;36.10;55.50;;;;;;6244778;23;20079;-79
2022/06/04 13:12:16;;;;;;;13.30;9.98;;;36.00;55.90;;;;;;6243157;23;20007;-81
2022/06/04 13:14:48;;;;;;;14.98;10.98;;;36.00;54.80;;;;;;6244886;23;20011;-78
2022/06/04 13:17:18;;;;;;;14.68;10.85;;;36.00;55.70;;;;;;6218618;23;20114;-78
2022/06/04 13:20:10;;;;;;;13.68;12.32;;;35.90;56.50;;;;;;6245419;23;20076;-78
2022/06/04 13:22:51;;;;;;;11.35;8.95;;;35.80;55.80;;;;;;6244923;23;19996;-77